<?xml version="1.0" encoding="UTF-8" standalone="no" ?>
<gpx xmlns="http://www.topografix.com/GPX/1/1" xmlns:xsi="http://www.w3.org/2001/XMLSchema-instance" xsi:schemaLocation="http://www.topografix.com/GPX/1/1 http://www.topografix.com/GPX/1/1/gpx.xsd" version="1.1" creator="VisuGPX - https://www.visugpx.com">
  <metadata>
    <name>CDS j13</name>
    <desc><![CDATA[Chemin du soleil]]></desc>
  </metadata>
  <trk>
    <name><![CDATA[ACTIVE LOG155518]]></name>
    <trkseg>
      <trkpt lat="43.79246" lon="7.04557">
        <ele>992</ele>
        <time>2011-08-21T13:55:17Z</time>
      </trkpt>
      <trkpt lat="43.79246" lon="7.0455">
        <ele>991</ele>
        <time>2011-08-21T13:55:30Z</time>
      </trkpt>
      <trkpt lat="43.79251" lon="7.04541">
        <ele>1010</ele>
        <time>2011-08-21T13:55:49Z</time>
      </trkpt>
      <trkpt lat="43.79252" lon="7.04539">
        <ele>1010</ele>
        <time>2011-08-21T13:55:52Z</time>
      </trkpt>
      <trkpt lat="43.79259" lon="7.04528">
        <ele>1009</ele>
        <time>2011-08-21T13:56:10Z</time>
      </trkpt>
      <trkpt lat="43.79278" lon="7.04514">
        <ele>1011</ele>
        <time>2011-08-21T13:56:32Z</time>
      </trkpt>
      <trkpt lat="43.79275" lon="7.04517">
        <ele>1011</ele>
        <time>2011-08-21T13:56:40Z</time>
      </trkpt>
      <trkpt lat="43.7926" lon="7.04541">
        <ele>1011</ele>
        <time>2011-08-21T13:56:51Z</time>
      </trkpt>
      <trkpt lat="43.79264" lon="7.04594">
        <ele>1011</ele>
        <time>2011-08-21T13:57:06Z</time>
      </trkpt>
      <trkpt lat="43.79271" lon="7.04663">
        <ele>1013</ele>
        <time>2011-08-21T13:57:24Z</time>
      </trkpt>
      <trkpt lat="43.79265" lon="7.04759">
        <ele>1019</ele>
        <time>2011-08-21T13:57:45Z</time>
      </trkpt>
      <trkpt lat="43.79232" lon="7.04837">
        <ele>1008</ele>
        <time>2011-08-21T13:58:02Z</time>
      </trkpt>
      <trkpt lat="43.79207" lon="7.04928">
        <ele>1006</ele>
        <time>2011-08-21T13:58:20Z</time>
      </trkpt>
      <trkpt lat="43.79216" lon="7.05053">
        <ele>1007</ele>
        <time>2011-08-21T13:58:40Z</time>
      </trkpt>
      <trkpt lat="43.79219" lon="7.05201">
        <ele>1006</ele>
        <time>2011-08-21T13:59:02Z</time>
      </trkpt>
      <trkpt lat="43.79232" lon="7.05361">
        <ele>1006</ele>
        <time>2011-08-21T13:59:25Z</time>
      </trkpt>
      <trkpt lat="43.79242" lon="7.0546">
        <ele>1004</ele>
        <time>2011-08-21T13:59:40Z</time>
      </trkpt>
      <trkpt lat="43.79247" lon="7.05558">
        <ele>1006</ele>
        <time>2011-08-21T13:59:57Z</time>
      </trkpt>
      <trkpt lat="43.7925" lon="7.05592">
        <ele>1012</ele>
        <time>2011-08-21T14:00:03Z</time>
      </trkpt>
      <trkpt lat="43.79255" lon="7.0568">
        <ele>1023</ele>
        <time>2011-08-21T14:00:19Z</time>
      </trkpt>
      <trkpt lat="43.79255" lon="7.0573">
        <ele>1026</ele>
        <time>2011-08-21T14:00:28Z</time>
      </trkpt>
      <trkpt lat="43.79246" lon="7.05823">
        <ele>1016</ele>
        <time>2011-08-21T14:00:44Z</time>
      </trkpt>
      <trkpt lat="43.79238" lon="7.05967">
        <ele>1023</ele>
        <time>2011-08-21T14:01:09Z</time>
      </trkpt>
      <trkpt lat="43.79234" lon="7.05989">
        <ele>1024</ele>
        <time>2011-08-21T14:01:13Z</time>
      </trkpt>
      <trkpt lat="43.79217" lon="7.06052">
        <ele>1026</ele>
        <time>2011-08-21T14:01:25Z</time>
      </trkpt>
      <trkpt lat="43.79224" lon="7.06092">
        <ele>1023</ele>
        <time>2011-08-21T14:01:32Z</time>
      </trkpt>
      <trkpt lat="43.79234" lon="7.06122">
        <ele>1022</ele>
        <time>2011-08-21T14:01:37Z</time>
      </trkpt>
      <trkpt lat="43.79274" lon="7.06225">
        <ele>1026</ele>
        <time>2011-08-21T14:01:52Z</time>
      </trkpt>
      <trkpt lat="43.79298" lon="7.06252">
        <ele>1024</ele>
        <time>2011-08-21T14:01:57Z</time>
      </trkpt>
      <trkpt lat="43.79326" lon="7.06334">
        <ele>1022</ele>
        <time>2011-08-21T14:02:07Z</time>
      </trkpt>
      <trkpt lat="43.79324" lon="7.064">
        <ele>1015</ele>
        <time>2011-08-21T14:02:14Z</time>
      </trkpt>
      <trkpt lat="43.79324" lon="7.06458">
        <ele>1009</ele>
        <time>2011-08-21T14:02:20Z</time>
      </trkpt>
      <trkpt lat="43.79324" lon="7.06524">
        <ele>1005</ele>
        <time>2011-08-21T14:02:27Z</time>
      </trkpt>
      <trkpt lat="43.79337" lon="7.06565">
        <ele>1020</ele>
        <time>2011-08-21T14:02:32Z</time>
      </trkpt>
      <trkpt lat="43.79349" lon="7.06587">
        <ele>1016</ele>
        <time>2011-08-21T14:02:35Z</time>
      </trkpt>
      <trkpt lat="43.79372" lon="7.06688">
        <ele>1013</ele>
        <time>2011-08-21T14:02:46Z</time>
      </trkpt>
      <trkpt lat="43.79399" lon="7.06774">
        <ele>1009</ele>
        <time>2011-08-21T14:02:56Z</time>
      </trkpt>
      <trkpt lat="43.79421" lon="7.06879">
        <ele>1022</ele>
        <time>2011-08-21T14:03:07Z</time>
      </trkpt>
      <trkpt lat="43.79422" lon="7.06977">
        <ele>1004</ele>
        <time>2011-08-21T14:03:16Z</time>
      </trkpt>
      <trkpt lat="43.79457" lon="7.07072">
        <ele>1000</ele>
        <time>2011-08-21T14:03:26Z</time>
      </trkpt>
      <trkpt lat="43.79548" lon="7.07228">
        <ele>1001</ele>
        <time>2011-08-21T14:03:45Z</time>
      </trkpt>
      <trkpt lat="43.79616" lon="7.07355">
        <ele>994</ele>
        <time>2011-08-21T14:04:00Z</time>
      </trkpt>
      <trkpt lat="43.79626" lon="7.07372">
        <ele>994</ele>
        <time>2011-08-21T14:04:02Z</time>
      </trkpt>
      <trkpt lat="43.79673" lon="7.07511">
        <ele>987</ele>
        <time>2011-08-21T14:04:17Z</time>
      </trkpt>
      <trkpt lat="43.797" lon="7.07582">
        <ele>986</ele>
        <time>2011-08-21T14:04:25Z</time>
      </trkpt>
      <trkpt lat="43.79729" lon="7.0763">
        <ele>979</ele>
        <time>2011-08-21T14:04:31Z</time>
      </trkpt>
      <trkpt lat="43.79748" lon="7.07728">
        <ele>968</ele>
        <time>2011-08-21T14:04:42Z</time>
      </trkpt>
      <trkpt lat="43.79748" lon="7.07735">
        <ele>969</ele>
        <time>2011-08-21T14:04:43Z</time>
      </trkpt>
      <trkpt lat="43.79753" lon="7.07754">
        <ele>976</ele>
        <time>2011-08-21T14:04:46Z</time>
      </trkpt>
      <trkpt lat="43.79761" lon="7.07821">
        <ele>976</ele>
        <time>2011-08-21T14:04:55Z</time>
      </trkpt>
      <trkpt lat="43.79796" lon="7.07967">
        <ele>966</ele>
        <time>2011-08-21T14:05:11Z</time>
      </trkpt>
      <trkpt lat="43.79853" lon="7.08199">
        <ele>964</ele>
        <time>2011-08-21T14:05:33Z</time>
      </trkpt>
      <trkpt lat="43.79856" lon="7.08219">
        <ele>964</ele>
        <time>2011-08-21T14:05:35Z</time>
      </trkpt>
      <trkpt lat="43.79831" lon="7.08263">
        <ele>955</ele>
        <time>2011-08-21T14:05:42Z</time>
      </trkpt>
      <trkpt lat="43.79821" lon="7.08267">
        <ele>954</ele>
        <time>2011-08-21T14:05:44Z</time>
      </trkpt>
      <trkpt lat="43.79794" lon="7.08282">
        <ele>953</ele>
        <time>2011-08-21T14:05:50Z</time>
      </trkpt>
      <trkpt lat="43.79759" lon="7.08357">
        <ele>954</ele>
        <time>2011-08-21T14:06:03Z</time>
      </trkpt>
      <trkpt lat="43.79756" lon="7.08386">
        <ele>955</ele>
        <time>2011-08-21T14:06:08Z</time>
      </trkpt>
      <trkpt lat="43.7977" lon="7.08427">
        <ele>955</ele>
        <time>2011-08-21T14:06:15Z</time>
      </trkpt>
      <trkpt lat="43.79782" lon="7.08446">
        <ele>955</ele>
        <time>2011-08-21T14:06:19Z</time>
      </trkpt>
      <trkpt lat="43.79834" lon="7.08485">
        <ele>952</ele>
        <time>2011-08-21T14:06:33Z</time>
      </trkpt>
      <trkpt lat="43.79881" lon="7.08518">
        <ele>948</ele>
        <time>2011-08-21T14:06:47Z</time>
      </trkpt>
      <trkpt lat="43.79908" lon="7.08527">
        <ele>948</ele>
        <time>2011-08-21T14:06:58Z</time>
      </trkpt>
      <trkpt lat="43.7993" lon="7.08527">
        <ele>949</ele>
        <time>2011-08-21T14:10:18Z</time>
      </trkpt>
      <trkpt lat="43.79934" lon="7.08528">
        <ele>949</ele>
        <time>2011-08-21T14:10:19Z</time>
      </trkpt>
      <trkpt lat="43.7996" lon="7.08561">
        <ele>947</ele>
        <time>2011-08-21T14:10:26Z</time>
      </trkpt>
      <trkpt lat="43.79964" lon="7.08576">
        <ele>946</ele>
        <time>2011-08-21T14:10:28Z</time>
      </trkpt>
      <trkpt lat="43.79983" lon="7.08608">
        <ele>939</ele>
        <time>2011-08-21T14:10:33Z</time>
      </trkpt>
      <trkpt lat="43.80001" lon="7.08624">
        <ele>944</ele>
        <time>2011-08-21T14:10:36Z</time>
      </trkpt>
      <trkpt lat="43.80017" lon="7.08672">
        <ele>937</ele>
        <time>2011-08-21T14:10:41Z</time>
      </trkpt>
      <trkpt lat="43.80022" lon="7.08713">
        <ele>936</ele>
        <time>2011-08-21T14:10:45Z</time>
      </trkpt>
      <trkpt lat="43.80042" lon="7.08744">
        <ele>936</ele>
        <time>2011-08-21T14:10:50Z</time>
      </trkpt>
      <trkpt lat="43.80053" lon="7.08756">
        <ele>934</ele>
        <time>2011-08-21T14:10:52Z</time>
      </trkpt>
      <trkpt lat="43.80066" lon="7.08809">
        <ele>933</ele>
        <time>2011-08-21T14:10:58Z</time>
      </trkpt>
      <trkpt lat="43.80076" lon="7.08922">
        <ele>923</ele>
        <time>2011-08-21T14:11:10Z</time>
      </trkpt>
      <trkpt lat="43.80109" lon="7.09021">
        <ele>916</ele>
        <time>2011-08-21T14:11:23Z</time>
      </trkpt>
      <trkpt lat="43.80169" lon="7.09078">
        <ele>914</ele>
        <time>2011-08-21T14:11:33Z</time>
      </trkpt>
      <trkpt lat="43.80223" lon="7.09065">
        <ele>914</ele>
        <time>2011-08-21T14:11:40Z</time>
      </trkpt>
      <trkpt lat="43.80242" lon="7.09049">
        <ele>916</ele>
        <time>2011-08-21T14:11:43Z</time>
      </trkpt>
      <trkpt lat="43.80262" lon="7.09017">
        <ele>914</ele>
        <time>2011-08-21T14:11:48Z</time>
      </trkpt>
      <trkpt lat="43.80288" lon="7.08993">
        <ele>924</ele>
        <time>2011-08-21T14:11:54Z</time>
      </trkpt>
      <trkpt lat="43.80321" lon="7.08977">
        <ele>921</ele>
        <time>2011-08-21T14:12:01Z</time>
      </trkpt>
      <trkpt lat="43.80354" lon="7.08946">
        <ele>916</ele>
        <time>2011-08-21T14:12:09Z</time>
      </trkpt>
      <trkpt lat="43.80375" lon="7.08895">
        <ele>930</ele>
        <time>2011-08-21T14:12:18Z</time>
      </trkpt>
      <trkpt lat="43.80402" lon="7.08883">
        <ele>929</ele>
        <time>2011-08-21T14:12:25Z</time>
      </trkpt>
      <trkpt lat="43.80433" lon="7.08905">
        <ele>923</ele>
        <time>2011-08-21T14:12:32Z</time>
      </trkpt>
      <trkpt lat="43.80529" lon="7.08927">
        <ele>914</ele>
        <time>2011-08-21T14:12:51Z</time>
      </trkpt>
      <trkpt lat="43.80538" lon="7.08927">
        <ele>914</ele>
        <time>2011-08-21T14:12:53Z</time>
      </trkpt>
      <trkpt lat="43.80572" lon="7.08919">
        <ele>915</ele>
        <time>2011-08-21T14:13:00Z</time>
      </trkpt>
      <trkpt lat="43.80604" lon="7.089">
        <ele>923</ele>
        <time>2011-08-21T14:13:07Z</time>
      </trkpt>
      <trkpt lat="43.8067" lon="7.0888">
        <ele>915</ele>
        <time>2011-08-21T14:13:21Z</time>
      </trkpt>
      <trkpt lat="43.80685" lon="7.08878">
        <ele>915</ele>
        <time>2011-08-21T14:13:24Z</time>
      </trkpt>
      <trkpt lat="43.80705" lon="7.08878">
        <ele>914</ele>
        <time>2011-08-21T14:13:28Z</time>
      </trkpt>
      <trkpt lat="43.80724" lon="7.08874">
        <ele>912</ele>
        <time>2011-08-21T14:13:32Z</time>
      </trkpt>
      <trkpt lat="43.80732" lon="7.0887">
        <ele>912</ele>
        <time>2011-08-21T14:13:34Z</time>
      </trkpt>
      <trkpt lat="43.8077" lon="7.08884">
        <ele>896</ele>
        <time>2011-08-21T14:13:43Z</time>
      </trkpt>
      <trkpt lat="43.80833" lon="7.08983">
        <ele>905</ele>
        <time>2011-08-21T14:14:02Z</time>
      </trkpt>
      <trkpt lat="43.80837" lon="7.08993">
        <ele>902</ele>
        <time>2011-08-21T14:14:04Z</time>
      </trkpt>
      <trkpt lat="43.80844" lon="7.09017">
        <ele>903</ele>
        <time>2011-08-21T14:14:08Z</time>
      </trkpt>
      <trkpt lat="43.80844" lon="7.09075">
        <ele>906</ele>
        <time>2011-08-21T14:14:16Z</time>
      </trkpt>
      <trkpt lat="43.80848" lon="7.09191">
        <ele>899</ele>
        <time>2011-08-21T14:14:29Z</time>
      </trkpt>
      <trkpt lat="43.80855" lon="7.09282">
        <ele>896</ele>
        <time>2011-08-21T14:14:40Z</time>
      </trkpt>
      <trkpt lat="43.80837" lon="7.0937">
        <ele>889</ele>
        <time>2011-08-21T14:14:54Z</time>
      </trkpt>
      <trkpt lat="43.80828" lon="7.09392">
        <ele>904</ele>
        <time>2011-08-21T14:14:58Z</time>
      </trkpt>
      <trkpt lat="43.8082" lon="7.09402">
        <ele>902</ele>
        <time>2011-08-21T14:15:00Z</time>
      </trkpt>
      <trkpt lat="43.80812" lon="7.09441">
        <ele>899</ele>
        <time>2011-08-21T14:15:06Z</time>
      </trkpt>
      <trkpt lat="43.80813" lon="7.09454">
        <ele>898</ele>
        <time>2011-08-21T14:15:08Z</time>
      </trkpt>
      <trkpt lat="43.80811" lon="7.0948">
        <ele>896</ele>
        <time>2011-08-21T14:15:12Z</time>
      </trkpt>
      <trkpt lat="43.80812" lon="7.09551">
        <ele>891</ele>
        <time>2011-08-21T14:15:25Z</time>
      </trkpt>
      <trkpt lat="43.80808" lon="7.09568">
        <ele>890</ele>
        <time>2011-08-21T14:15:35Z</time>
      </trkpt>
      <trkpt lat="43.8081" lon="7.09568">
        <ele>890</ele>
        <time>2011-08-21T14:16:13Z</time>
      </trkpt>
      <trkpt lat="43.80816" lon="7.09569">
        <ele>890</ele>
        <time>2011-08-21T14:16:16Z</time>
      </trkpt>
      <trkpt lat="43.8084" lon="7.09592">
        <ele>880</ele>
        <time>2011-08-21T14:16:25Z</time>
      </trkpt>
      <trkpt lat="43.80836" lon="7.09589">
        <ele>882</ele>
        <time>2011-08-21T14:16:32Z</time>
      </trkpt>
      <trkpt lat="43.80828" lon="7.09587">
        <ele>885</ele>
        <time>2011-08-21T14:16:37Z</time>
      </trkpt>
      <trkpt lat="43.80829" lon="7.09593">
        <ele>884</ele>
        <time>2011-08-21T14:16:40Z</time>
      </trkpt>
      <trkpt lat="43.80827" lon="7.0961">
        <ele>882</ele>
        <time>2011-08-21T14:16:50Z</time>
      </trkpt>
      <trkpt lat="43.80827" lon="7.09609">
        <ele>882</ele>
        <time>2011-08-21T14:16:54Z</time>
      </trkpt>
      <trkpt lat="43.80829" lon="7.09601">
        <ele>883</ele>
        <time>2011-08-21T14:17:16Z</time>
      </trkpt>
      <trkpt lat="43.80828" lon="7.09595">
        <ele>884</ele>
        <time>2011-08-21T14:17:23Z</time>
      </trkpt>
      <trkpt lat="43.80826" lon="7.0959">
        <ele>884</ele>
        <time>2011-08-21T14:17:25Z</time>
      </trkpt>
      <trkpt lat="43.80832" lon="7.09592">
        <ele>884</ele>
        <time>2011-08-21T14:17:30Z</time>
      </trkpt>
      <trkpt lat="43.80857" lon="7.09621">
        <ele>872</ele>
        <time>2011-08-21T14:17:42Z</time>
      </trkpt>
      <trkpt lat="43.80858" lon="7.09637">
        <ele>871</ele>
        <time>2011-08-21T14:17:52Z</time>
      </trkpt>
      <trkpt lat="43.80851" lon="7.09646">
        <ele>872</ele>
        <time>2011-08-21T14:18:10Z</time>
      </trkpt>
      <trkpt lat="43.80848" lon="7.09653">
        <ele>873</ele>
        <time>2011-08-21T14:18:29Z</time>
      </trkpt>
      <trkpt lat="43.80849" lon="7.09654">
        <ele>873</ele>
        <time>2011-08-21T14:18:34Z</time>
      </trkpt>
      <trkpt lat="43.80853" lon="7.09655">
        <ele>872</ele>
        <time>2011-08-21T14:18:51Z</time>
      </trkpt>
      <trkpt lat="43.80869" lon="7.09666">
        <ele>870</ele>
        <time>2011-08-21T14:19:06Z</time>
      </trkpt>
      <trkpt lat="43.80882" lon="7.0967">
        <ele>862</ele>
        <time>2011-08-21T14:19:17Z</time>
      </trkpt>
      <trkpt lat="43.80883" lon="7.09669">
        <ele>862</ele>
        <time>2011-08-21T14:19:30Z</time>
      </trkpt>
      <trkpt lat="43.80883" lon="7.09669">
        <ele>862</ele>
        <time>2011-08-21T14:21:38Z</time>
      </trkpt>
      <trkpt lat="43.80883" lon="7.09669">
        <ele>862</ele>
        <time>2011-08-21T14:21:39Z</time>
      </trkpt>
      <trkpt lat="43.80883" lon="7.09649">
        <ele>868</ele>
        <time>2011-08-21T14:21:46Z</time>
      </trkpt>
      <trkpt lat="43.80869" lon="7.09613">
        <ele>870</ele>
        <time>2011-08-21T14:21:59Z</time>
      </trkpt>
      <trkpt lat="43.80843" lon="7.09582">
        <ele>879</ele>
        <time>2011-08-21T14:22:15Z</time>
      </trkpt>
      <trkpt lat="43.80833" lon="7.09572">
        <ele>888</ele>
        <time>2011-08-21T14:22:21Z</time>
      </trkpt>
      <trkpt lat="43.80825" lon="7.09562">
        <ele>889</ele>
        <time>2011-08-21T14:22:26Z</time>
      </trkpt>
      <trkpt lat="43.80823" lon="7.0957">
        <ele>889</ele>
        <time>2011-08-21T14:22:31Z</time>
      </trkpt>
      <trkpt lat="43.80833" lon="7.09581">
        <ele>887</ele>
        <time>2011-08-21T14:22:37Z</time>
      </trkpt>
      <trkpt lat="43.80827" lon="7.09582">
        <ele>887</ele>
        <time>2011-08-21T14:22:44Z</time>
      </trkpt>
      <trkpt lat="43.80813" lon="7.09568">
        <ele>890</ele>
        <time>2011-08-21T14:22:53Z</time>
      </trkpt>
      <trkpt lat="43.80807" lon="7.09571">
        <ele>890</ele>
        <time>2011-08-21T14:22:57Z</time>
      </trkpt>
      <trkpt lat="43.80802" lon="7.09573">
        <ele>891</ele>
        <time>2011-08-21T14:23:00Z</time>
      </trkpt>
      <trkpt lat="43.80791" lon="7.09576">
        <ele>892</ele>
        <time>2011-08-21T14:23:18Z</time>
      </trkpt>
      <trkpt lat="43.80751" lon="7.09587">
        <ele>890</ele>
        <time>2011-08-21T14:23:30Z</time>
      </trkpt>
      <trkpt lat="43.80728" lon="7.09597">
        <ele>882</ele>
        <time>2011-08-21T14:23:43Z</time>
      </trkpt>
      <trkpt lat="43.80729" lon="7.09596">
        <ele>882</ele>
        <time>2011-08-21T14:24:02Z</time>
      </trkpt>
      <trkpt lat="43.80729" lon="7.09596">
        <ele>882</ele>
        <time>2011-08-21T14:24:06Z</time>
      </trkpt>
      <trkpt lat="43.80693" lon="7.09582">
        <ele>894</ele>
        <time>2011-08-21T14:24:22Z</time>
      </trkpt>
      <trkpt lat="43.80648" lon="7.09573">
        <ele>893</ele>
        <time>2011-08-21T14:24:32Z</time>
      </trkpt>
      <trkpt lat="43.80652" lon="7.09587">
        <ele>880</ele>
        <time>2011-08-21T14:24:38Z</time>
      </trkpt>
      <trkpt lat="43.80661" lon="7.0959">
        <ele>882</ele>
        <time>2011-08-21T14:24:40Z</time>
      </trkpt>
      <trkpt lat="43.80704" lon="7.09621">
        <ele>876</ele>
        <time>2011-08-21T14:24:51Z</time>
      </trkpt>
      <trkpt lat="43.80724" lon="7.09623">
        <ele>877</ele>
        <time>2011-08-21T14:25:06Z</time>
      </trkpt>
      <trkpt lat="43.80724" lon="7.09623">
        <ele>877</ele>
        <time>2011-08-21T14:25:29Z</time>
      </trkpt>
      <trkpt lat="43.80694" lon="7.09618">
        <ele>877</ele>
        <time>2011-08-21T14:25:42Z</time>
      </trkpt>
      <trkpt lat="43.8063" lon="7.09606">
        <ele>875</ele>
        <time>2011-08-21T14:25:54Z</time>
      </trkpt>
      <trkpt lat="43.80611" lon="7.09608">
        <ele>875</ele>
        <time>2011-08-21T14:25:57Z</time>
      </trkpt>
      <trkpt lat="43.80543" lon="7.09643">
        <ele>877</ele>
        <time>2011-08-21T14:26:09Z</time>
      </trkpt>
      <trkpt lat="43.80493" lon="7.09688">
        <ele>879</ele>
        <time>2011-08-21T14:26:23Z</time>
      </trkpt>
      <trkpt lat="43.80486" lon="7.09699">
        <ele>879</ele>
        <time>2011-08-21T14:26:25Z</time>
      </trkpt>
      <trkpt lat="43.80482" lon="7.09745">
        <ele>870</ele>
        <time>2011-08-21T14:26:31Z</time>
      </trkpt>
      <trkpt lat="43.80484" lon="7.09797">
        <ele>868</ele>
        <time>2011-08-21T14:26:36Z</time>
      </trkpt>
      <trkpt lat="43.80481" lon="7.09894">
        <ele>856</ele>
        <time>2011-08-21T14:26:45Z</time>
      </trkpt>
      <trkpt lat="43.80463" lon="7.0994">
        <ele>847</ele>
        <time>2011-08-21T14:26:51Z</time>
      </trkpt>
      <trkpt lat="43.80433" lon="7.09984">
        <ele>847</ele>
        <time>2011-08-21T14:26:58Z</time>
      </trkpt>
      <trkpt lat="43.8036" lon="7.10062">
        <ele>843</ele>
        <time>2011-08-21T14:27:14Z</time>
      </trkpt>
      <trkpt lat="43.80354" lon="7.10067">
        <ele>843</ele>
        <time>2011-08-21T14:27:15Z</time>
      </trkpt>
      <trkpt lat="43.80338" lon="7.10081">
        <ele>842</ele>
        <time>2011-08-21T14:27:18Z</time>
      </trkpt>
      <trkpt lat="43.80318" lon="7.10108">
        <ele>835</ele>
        <time>2011-08-21T14:27:23Z</time>
      </trkpt>
      <trkpt lat="43.80298" lon="7.10119">
        <ele>834</ele>
        <time>2011-08-21T14:27:27Z</time>
      </trkpt>
      <trkpt lat="43.80266" lon="7.10141">
        <ele>832</ele>
        <time>2011-08-21T14:27:38Z</time>
      </trkpt>
      <trkpt lat="43.80264" lon="7.10141">
        <ele>832</ele>
        <time>2011-08-21T14:27:54Z</time>
      </trkpt>
      <trkpt lat="43.80264" lon="7.10142">
        <ele>832</ele>
        <time>2011-08-21T14:28:06Z</time>
      </trkpt>
      <trkpt lat="43.80239" lon="7.10148">
        <ele>836</ele>
        <time>2011-08-21T14:28:19Z</time>
      </trkpt>
      <trkpt lat="43.80235" lon="7.10149">
        <ele>836</ele>
        <time>2011-08-21T14:28:29Z</time>
      </trkpt>
      <trkpt lat="43.80234" lon="7.10148">
        <ele>837</ele>
        <time>2011-08-21T14:28:38Z</time>
      </trkpt>
      <trkpt lat="43.80227" lon="7.1016">
        <ele>836</ele>
        <time>2011-08-21T14:28:44Z</time>
      </trkpt>
      <trkpt lat="43.80219" lon="7.10164">
        <ele>837</ele>
        <time>2011-08-21T14:28:48Z</time>
      </trkpt>
      <trkpt lat="43.80191" lon="7.10195">
        <ele>831</ele>
        <time>2011-08-21T14:29:00Z</time>
      </trkpt>
      <trkpt lat="43.80164" lon="7.10205">
        <ele>836</ele>
        <time>2011-08-21T14:29:09Z</time>
      </trkpt>
      <trkpt lat="43.80151" lon="7.10233">
        <ele>833</ele>
        <time>2011-08-21T14:29:18Z</time>
      </trkpt>
      <trkpt lat="43.80152" lon="7.10246">
        <ele>832</ele>
        <time>2011-08-21T14:29:22Z</time>
      </trkpt>
      <trkpt lat="43.8016" lon="7.10253">
        <ele>830</ele>
        <time>2011-08-21T14:29:35Z</time>
      </trkpt>
      <trkpt lat="43.80172" lon="7.1025">
        <ele>827</ele>
        <time>2011-08-21T14:29:48Z</time>
      </trkpt>
      <trkpt lat="43.80193" lon="7.10235">
        <ele>829</ele>
        <time>2011-08-21T14:30:03Z</time>
      </trkpt>
      <trkpt lat="43.802" lon="7.10239">
        <ele>829</ele>
        <time>2011-08-21T14:30:15Z</time>
      </trkpt>
      <trkpt lat="43.8019" lon="7.10252">
        <ele>832</ele>
        <time>2011-08-21T14:30:53Z</time>
      </trkpt>
      <trkpt lat="43.80189" lon="7.10253">
        <ele>832</ele>
        <time>2011-08-21T14:30:55Z</time>
      </trkpt>
      <trkpt lat="43.80181" lon="7.10261">
        <ele>832</ele>
        <time>2011-08-21T14:31:12Z</time>
      </trkpt>
      <trkpt lat="43.80165" lon="7.10277">
        <ele>835</ele>
        <time>2011-08-21T14:31:29Z</time>
      </trkpt>
      <trkpt lat="43.80163" lon="7.10277">
        <ele>835</ele>
        <time>2011-08-21T14:31:31Z</time>
      </trkpt>
      <trkpt lat="43.80158" lon="7.10281">
        <ele>836</ele>
        <time>2011-08-21T14:31:35Z</time>
      </trkpt>
      <trkpt lat="43.80151" lon="7.10301">
        <ele>839</ele>
        <time>2011-08-21T14:31:46Z</time>
      </trkpt>
      <trkpt lat="43.80143" lon="7.10337">
        <ele>845</ele>
        <time>2011-08-21T14:32:05Z</time>
      </trkpt>
      <trkpt lat="43.80143" lon="7.10358">
        <ele>846</ele>
        <time>2011-08-21T14:32:20Z</time>
      </trkpt>
      <trkpt lat="43.80141" lon="7.10375">
        <ele>847</ele>
        <time>2011-08-21T14:32:34Z</time>
      </trkpt>
      <trkpt lat="43.80137" lon="7.10393">
        <ele>848</ele>
        <time>2011-08-21T14:32:51Z</time>
      </trkpt>
      <trkpt lat="43.80133" lon="7.10412">
        <ele>848</ele>
        <time>2011-08-21T14:33:05Z</time>
      </trkpt>
      <trkpt lat="43.80135" lon="7.10422">
        <ele>851</ele>
        <time>2011-08-21T14:33:16Z</time>
      </trkpt>
      <trkpt lat="43.80133" lon="7.10439">
        <ele>852</ele>
        <time>2011-08-21T14:33:31Z</time>
      </trkpt>
      <trkpt lat="43.80135" lon="7.10462">
        <ele>853</ele>
        <time>2011-08-21T14:33:51Z</time>
      </trkpt>
      <trkpt lat="43.80134" lon="7.10486">
        <ele>854</ele>
        <time>2011-08-21T14:34:10Z</time>
      </trkpt>
      <trkpt lat="43.80131" lon="7.10515">
        <ele>860</ele>
        <time>2011-08-21T14:34:33Z</time>
      </trkpt>
      <trkpt lat="43.80128" lon="7.1054">
        <ele>861</ele>
        <time>2011-08-21T14:34:52Z</time>
      </trkpt>
      <trkpt lat="43.80126" lon="7.10551">
        <ele>862</ele>
        <time>2011-08-21T14:35:05Z</time>
      </trkpt>
      <trkpt lat="43.80125" lon="7.10553">
        <ele>862</ele>
        <time>2011-08-21T14:35:06Z</time>
      </trkpt>
      <trkpt lat="43.80118" lon="7.10576">
        <ele>863</ele>
        <time>2011-08-21T14:35:30Z</time>
      </trkpt>
      <trkpt lat="43.80118" lon="7.10577">
        <ele>863</ele>
        <time>2011-08-21T14:35:38Z</time>
      </trkpt>
      <trkpt lat="43.80106" lon="7.10609">
        <ele>869</ele>
        <time>2011-08-21T14:35:56Z</time>
      </trkpt>
      <trkpt lat="43.80088" lon="7.10653">
        <ele>870</ele>
        <time>2011-08-21T14:36:14Z</time>
      </trkpt>
      <trkpt lat="43.80079" lon="7.10706">
        <ele>877</ele>
        <time>2011-08-21T14:36:31Z</time>
      </trkpt>
      <trkpt lat="43.80082" lon="7.1074">
        <ele>877</ele>
        <time>2011-08-21T14:36:43Z</time>
      </trkpt>
      <trkpt lat="43.80092" lon="7.10807">
        <ele>884</ele>
        <time>2011-08-21T14:37:04Z</time>
      </trkpt>
      <trkpt lat="43.80089" lon="7.10877">
        <ele>887</ele>
        <time>2011-08-21T14:37:25Z</time>
      </trkpt>
      <trkpt lat="43.80084" lon="7.10948">
        <ele>889</ele>
        <time>2011-08-21T14:37:45Z</time>
      </trkpt>
      <trkpt lat="43.80084" lon="7.11018">
        <ele>891</ele>
        <time>2011-08-21T14:38:06Z</time>
      </trkpt>
      <trkpt lat="43.80085" lon="7.11072">
        <ele>892</ele>
        <time>2011-08-21T14:38:23Z</time>
      </trkpt>
      <trkpt lat="43.80092" lon="7.11134">
        <ele>896</ele>
        <time>2011-08-21T14:38:43Z</time>
      </trkpt>
      <trkpt lat="43.80106" lon="7.11197">
        <ele>898</ele>
        <time>2011-08-21T14:39:04Z</time>
      </trkpt>
      <trkpt lat="43.80102" lon="7.11259">
        <ele>897</ele>
        <time>2011-08-21T14:39:24Z</time>
      </trkpt>
      <trkpt lat="43.80081" lon="7.11298">
        <ele>899</ele>
        <time>2011-08-21T14:39:39Z</time>
      </trkpt>
      <trkpt lat="43.80059" lon="7.11325">
        <ele>900</ele>
        <time>2011-08-21T14:39:51Z</time>
      </trkpt>
      <trkpt lat="43.8004" lon="7.11366">
        <ele>901</ele>
        <time>2011-08-21T14:40:09Z</time>
      </trkpt>
      <trkpt lat="43.8002" lon="7.11393">
        <ele>902</ele>
        <time>2011-08-21T14:40:27Z</time>
      </trkpt>
      <trkpt lat="43.80003" lon="7.1141">
        <ele>904</ele>
        <time>2011-08-21T14:40:46Z</time>
      </trkpt>
      <trkpt lat="43.79992" lon="7.11415">
        <ele>910</ele>
        <time>2011-08-21T14:41:18Z</time>
      </trkpt>
      <trkpt lat="43.79977" lon="7.11426">
        <ele>909</ele>
        <time>2011-08-21T14:41:37Z</time>
      </trkpt>
      <trkpt lat="43.79961" lon="7.11436">
        <ele>911</ele>
        <time>2011-08-21T14:41:59Z</time>
      </trkpt>
      <trkpt lat="43.79945" lon="7.11445">
        <ele>913</ele>
        <time>2011-08-21T14:42:12Z</time>
      </trkpt>
      <trkpt lat="43.79917" lon="7.11459">
        <ele>913</ele>
        <time>2011-08-21T14:42:31Z</time>
      </trkpt>
      <trkpt lat="43.79899" lon="7.11465">
        <ele>926</ele>
        <time>2011-08-21T14:42:45Z</time>
      </trkpt>
      <trkpt lat="43.79888" lon="7.11466">
        <ele>926</ele>
        <time>2011-08-21T14:42:59Z</time>
      </trkpt>
      <trkpt lat="43.79879" lon="7.11473">
        <ele>927</ele>
        <time>2011-08-21T14:43:06Z</time>
      </trkpt>
      <trkpt lat="43.79845" lon="7.11477">
        <ele>929</ele>
        <time>2011-08-21T14:43:27Z</time>
      </trkpt>
      <trkpt lat="43.79812" lon="7.11485">
        <ele>936</ele>
        <time>2011-08-21T14:43:46Z</time>
      </trkpt>
      <trkpt lat="43.79793" lon="7.11496">
        <ele>937</ele>
        <time>2011-08-21T14:44:01Z</time>
      </trkpt>
      <trkpt lat="43.79782" lon="7.115">
        <ele>938</ele>
        <time>2011-08-21T14:44:13Z</time>
      </trkpt>
      <trkpt lat="43.7978" lon="7.11506">
        <ele>938</ele>
        <time>2011-08-21T14:44:26Z</time>
      </trkpt>
      <trkpt lat="43.79785" lon="7.11512">
        <ele>938</ele>
        <time>2011-08-21T14:44:37Z</time>
      </trkpt>
      <trkpt lat="43.7979" lon="7.1152">
        <ele>938</ele>
        <time>2011-08-21T14:44:50Z</time>
      </trkpt>
      <trkpt lat="43.79781" lon="7.11522">
        <ele>938</ele>
        <time>2011-08-21T14:45:01Z</time>
      </trkpt>
      <trkpt lat="43.79763" lon="7.11514">
        <ele>938</ele>
        <time>2011-08-21T14:45:22Z</time>
      </trkpt>
      <trkpt lat="43.79745" lon="7.1151">
        <ele>942</ele>
        <time>2011-08-21T14:45:41Z</time>
      </trkpt>
      <trkpt lat="43.79725" lon="7.11506">
        <ele>945</ele>
        <time>2011-08-21T14:46:04Z</time>
      </trkpt>
      <trkpt lat="43.79701" lon="7.11499">
        <ele>944</ele>
        <time>2011-08-21T14:46:29Z</time>
      </trkpt>
      <trkpt lat="43.79688" lon="7.11494">
        <ele>945</ele>
        <time>2011-08-21T14:46:45Z</time>
      </trkpt>
      <trkpt lat="43.7967" lon="7.11487">
        <ele>946</ele>
        <time>2011-08-21T14:47:06Z</time>
      </trkpt>
      <trkpt lat="43.79653" lon="7.1148">
        <ele>950</ele>
        <time>2011-08-21T14:47:27Z</time>
      </trkpt>
      <trkpt lat="43.79634" lon="7.11475">
        <ele>951</ele>
        <time>2011-08-21T14:47:47Z</time>
      </trkpt>
      <trkpt lat="43.79622" lon="7.11474">
        <ele>952</ele>
        <time>2011-08-21T14:48:05Z</time>
      </trkpt>
      <trkpt lat="43.79631" lon="7.11487">
        <ele>951</ele>
        <time>2011-08-21T14:48:21Z</time>
      </trkpt>
      <trkpt lat="43.79636" lon="7.11504">
        <ele>957</ele>
        <time>2011-08-21T14:48:37Z</time>
      </trkpt>
      <trkpt lat="43.79642" lon="7.11523">
        <ele>958</ele>
        <time>2011-08-21T14:48:55Z</time>
      </trkpt>
      <trkpt lat="43.79644" lon="7.11543">
        <ele>960</ele>
        <time>2011-08-21T14:49:13Z</time>
      </trkpt>
      <trkpt lat="43.79651" lon="7.11564">
        <ele>961</ele>
        <time>2011-08-21T14:49:32Z</time>
      </trkpt>
      <trkpt lat="43.7966" lon="7.11575">
        <ele>962</ele>
        <time>2011-08-21T14:49:47Z</time>
      </trkpt>
      <trkpt lat="43.79665" lon="7.11587">
        <ele>964</ele>
        <time>2011-08-21T14:50:02Z</time>
      </trkpt>
      <trkpt lat="43.79668" lon="7.11599">
        <ele>964</ele>
        <time>2011-08-21T14:50:19Z</time>
      </trkpt>
      <trkpt lat="43.79672" lon="7.11605">
        <ele>964</ele>
        <time>2011-08-21T14:50:47Z</time>
      </trkpt>
      <trkpt lat="43.79683" lon="7.11619">
        <ele>965</ele>
        <time>2011-08-21T14:51:01Z</time>
      </trkpt>
      <trkpt lat="43.79693" lon="7.11643">
        <ele>966</ele>
        <time>2011-08-21T14:51:23Z</time>
      </trkpt>
      <trkpt lat="43.79704" lon="7.1166">
        <ele>967</ele>
        <time>2011-08-21T14:51:43Z</time>
      </trkpt>
      <trkpt lat="43.79704" lon="7.11661">
        <ele>967</ele>
        <time>2011-08-21T14:51:48Z</time>
      </trkpt>
      <trkpt lat="43.79707" lon="7.11666">
        <ele>967</ele>
        <time>2011-08-21T14:51:52Z</time>
      </trkpt>
      <trkpt lat="43.79717" lon="7.11704">
        <ele>974</ele>
        <time>2011-08-21T14:52:11Z</time>
      </trkpt>
      <trkpt lat="43.79716" lon="7.11751">
        <ele>978</ele>
        <time>2011-08-21T14:52:27Z</time>
      </trkpt>
      <trkpt lat="43.79711" lon="7.11776">
        <ele>979</ele>
        <time>2011-08-21T14:52:35Z</time>
      </trkpt>
      <trkpt lat="43.79695" lon="7.11801">
        <ele>980</ele>
        <time>2011-08-21T14:52:45Z</time>
      </trkpt>
      <trkpt lat="43.79691" lon="7.11808">
        <ele>980</ele>
        <time>2011-08-21T14:52:49Z</time>
      </trkpt>
      <trkpt lat="43.7969" lon="7.11848">
        <ele>984</ele>
        <time>2011-08-21T14:53:06Z</time>
      </trkpt>
      <trkpt lat="43.7969" lon="7.11857">
        <ele>984</ele>
        <time>2011-08-21T14:53:10Z</time>
      </trkpt>
      <trkpt lat="43.79685" lon="7.11906">
        <ele>985</ele>
        <time>2011-08-21T14:53:28Z</time>
      </trkpt>
      <trkpt lat="43.7968" lon="7.11946">
        <ele>986</ele>
        <time>2011-08-21T14:53:41Z</time>
      </trkpt>
      <trkpt lat="43.79662" lon="7.1199">
        <ele>987</ele>
        <time>2011-08-21T14:53:57Z</time>
      </trkpt>
      <trkpt lat="43.79642" lon="7.12024">
        <ele>990</ele>
        <time>2011-08-21T14:54:11Z</time>
      </trkpt>
      <trkpt lat="43.79614" lon="7.12046">
        <ele>992</ele>
        <time>2011-08-21T14:54:25Z</time>
      </trkpt>
      <trkpt lat="43.79608" lon="7.12088">
        <ele>995</ele>
        <time>2011-08-21T14:54:40Z</time>
      </trkpt>
      <trkpt lat="43.79599" lon="7.12122">
        <ele>996</ele>
        <time>2011-08-21T14:54:53Z</time>
      </trkpt>
      <trkpt lat="43.79574" lon="7.12172">
        <ele>1001</ele>
        <time>2011-08-21T14:55:13Z</time>
      </trkpt>
      <trkpt lat="43.79565" lon="7.12205">
        <ele>1003</ele>
        <time>2011-08-21T14:55:27Z</time>
      </trkpt>
      <trkpt lat="43.79576" lon="7.12246">
        <ele>1005</ele>
        <time>2011-08-21T14:55:44Z</time>
      </trkpt>
      <trkpt lat="43.7959" lon="7.1228">
        <ele>1004</ele>
        <time>2011-08-21T14:55:58Z</time>
      </trkpt>
      <trkpt lat="43.79591" lon="7.12283">
        <ele>1004</ele>
        <time>2011-08-21T14:55:59Z</time>
      </trkpt>
      <trkpt lat="43.79583" lon="7.12326">
        <ele>1008</ele>
        <time>2011-08-21T14:56:14Z</time>
      </trkpt>
      <trkpt lat="43.79572" lon="7.12363">
        <ele>1008</ele>
        <time>2011-08-21T14:56:30Z</time>
      </trkpt>
      <trkpt lat="43.79572" lon="7.12407">
        <ele>1007</ele>
        <time>2011-08-21T14:56:44Z</time>
      </trkpt>
      <trkpt lat="43.79549" lon="7.12439">
        <ele>1005</ele>
        <time>2011-08-21T14:56:55Z</time>
      </trkpt>
      <trkpt lat="43.79545" lon="7.12441">
        <ele>1005</ele>
        <time>2011-08-21T14:56:56Z</time>
      </trkpt>
      <trkpt lat="43.79534" lon="7.12459">
        <ele>1005</ele>
        <time>2011-08-21T14:57:00Z</time>
      </trkpt>
      <trkpt lat="43.79531" lon="7.12468">
        <ele>1005</ele>
        <time>2011-08-21T14:57:02Z</time>
      </trkpt>
      <trkpt lat="43.79517" lon="7.12508">
        <ele>1004</ele>
        <time>2011-08-21T14:57:15Z</time>
      </trkpt>
      <trkpt lat="43.79508" lon="7.12527">
        <ele>1004</ele>
        <time>2011-08-21T14:57:28Z</time>
      </trkpt>
      <trkpt lat="43.79503" lon="7.12522">
        <ele>1004</ele>
        <time>2011-08-21T14:57:55Z</time>
      </trkpt>
      <trkpt lat="43.79501" lon="7.12517">
        <ele>1004</ele>
        <time>2011-08-21T14:57:59Z</time>
      </trkpt>
      <trkpt lat="43.79494" lon="7.12514">
        <ele>1006</ele>
        <time>2011-08-21T14:58:18Z</time>
      </trkpt>
      <trkpt lat="43.79493" lon="7.12514">
        <ele>1006</ele>
        <time>2011-08-21T14:59:12Z</time>
      </trkpt>
    </trkseg>
  </trk>
</gpx>